Pontiac, IL

7:08 AM CDT on October 18, 2017 (GMT -0500)
Pontiac Municipal

Weather History for KPNT - November, 2011

Change the Weather History Date:

Thursday, November 24, 2011

  Actual Average Record
Temperature  
Mean Temperature 46 °F -  
Max Temperature 51 °F 46 °F 68 °F (1931)
Min Temperature 42 °F 28 °F -4 °F (1950)
Degree Days  
Heating Degree Days 18    
Moisture  
Dew Point 43 °F    
Average Humidity 93    
Maximum Humidity 100    
Minimum Humidity 82    
Precipitation  
Precipitation 0.00 in - - ()
Sea Level Pressure  
Sea Level Pressure 30.22 in    
Wind  
Wind Speed 12 mph (SSW)    
Max Wind Speed 21 mph    
Max Gust Speed 29 mph    
Visibility 4 miles    
Events      
Averages and records for this station are not official NWS values.
T = Trace of Precipitation, MM = Missing Value Source: NWS Daily Summary

Daily Weather History Graph

Daily Weather History Graph

Search for Another Location

Airport or City:

Trip Planner

Search our weather history database for the weather conditions in past years. The results will help you decide how hot, cold, wet, or windy it might be!

Date:

Astronomy

Nov. 24, 2011 Rise Set
Actual Time 6:51 AM CST 4:30 PM CST
Civil Twilight 6:21 AM CST 5:00 PM CST
Nautical Twilight 5:48 AM CST 5:33 PM CST
Astronomical Twilight 5:15 AM CST 6:06 PM CST
Moon 6:09 AM CST (11/24) 4:00 PM CST (11/24)
Length of Visible Light 10h 38m
Length of Day
9h 38m
Waning Crescent, 0% of the Moon is Illuminated
Nov 24
Waning Crescent
Nov 25
New
Dec 2
First Quarter
Dec 10
Full
Dec 17
Last Quarter

Hourly Weather History & Observations

Time (CST) Temp. Windchill Dew Point Humidity Pressure Visibility Wind Dir Wind Speed Gust Speed Precip Events Conditions
12:15 AM 44.6 °F 39.7 °F 42.8 °F 93% 30.24 in 3.0 mi SW 9.2 mph - N/A   Overcast
12:35 AM 44.6 °F 38.8 °F 42.8 °F 93% 30.24 in 4.0 mi SW 11.5 mph - N/A   Overcast
12:55 AM 44.6 °F 38.8 °F 42.8 °F 93% 30.24 in 4.0 mi SW 11.5 mph - N/A   Overcast
1:15 AM 44.6 °F 38.8 °F 42.8 °F 93% 30.24 in 4.0 mi SSW 11.5 mph - N/A   Overcast
1:35 AM 44.6 °F 39.2 °F 42.8 °F 93% 30.25 in 4.0 mi SW 10.4 mph - N/A   Overcast
1:55 AM 44.6 °F 39.7 °F 42.8 °F 93% 30.24 in 4.0 mi SW 9.2 mph - N/A   Overcast
2:15 AM 44.6 °F 39.2 °F 42.8 °F 93% 30.24 in 3.0 mi SW 10.4 mph - N/A   Overcast
2:35 AM 44.6 °F 39.7 °F 42.8 °F 93% 30.25 in 4.0 mi SW 9.2 mph - N/A   Overcast
2:55 AM 42.8 °F 36.6 °F 42.8 °F 100% 30.25 in 3.0 mi SW 11.5 mph - N/A   Overcast
3:15 AM 42.8 °F 35.4 °F 42.8 °F 100% 30.25 in 3.0 mi SW 15.0 mph - N/A   Overcast
3:35 AM 42.8 °F 36.6 °F 42.8 °F 100% 30.25 in 3.0 mi SW 11.5 mph - N/A   Overcast
3:55 AM 42.8 °F 36.6 °F 42.8 °F 100% 30.25 in 3.0 mi SW 11.5 mph - N/A   Overcast
4:15 AM 42.8 °F 38.0 °F 42.8 °F 100% 30.25 in 2.5 mi SW 8.1 mph - N/A   Overcast
4:35 AM 42.8 °F 36.6 °F 42.8 °F 100% 30.25 in 2.5 mi WSW 11.5 mph - N/A   Overcast
4:55 AM 42.8 °F 37.5 °F 41.0 °F 93% 30.24 in 3.0 mi SW 9.2 mph - N/A   Overcast
5:15 AM 42.8 °F 36.6 °F 41.0 °F 93% 30.24 in 2.5 mi SW 11.5 mph - N/A   Overcast
5:35 AM 42.8 °F 36.6 °F 41.0 °F 93% 30.24 in 3.0 mi SSW 11.5 mph - N/A   Overcast
5:55 AM 42.8 °F 37.0 °F 41.0 °F 93% 30.25 in 3.0 mi SSW 10.4 mph - N/A   Overcast
6:15 AM 42.8 °F 36.2 °F 41.0 °F 93% 30.25 in 3.0 mi SSW 12.7 mph - N/A   Overcast
6:35 AM 42.8 °F 37.5 °F 41.0 °F 93% 30.25 in 4.0 mi SSW 9.2 mph - N/A   Overcast
6:55 AM 42.8 °F 36.6 °F 41.0 °F 93% 30.25 in 3.0 mi SSW 11.5 mph - N/A   Overcast
7:15 AM 42.8 °F 36.6 °F 41.0 °F 93% 30.25 in 2.5 mi SSW 11.5 mph - N/A   Overcast
7:35 AM 42.8 °F 36.6 °F 41.0 °F 93% 30.26 in 2.0 mi SSW 11.5 mph - N/A   Overcast
7:55 AM 42.8 °F 37.0 °F 42.8 °F 100% 30.26 in 2.0 mi SSW 10.4 mph - N/A   Overcast
8:15 AM 42.8 °F 35.4 °F 41.0 °F 93% 30.25 in 2.0 mi South 15.0 mph - N/A   Overcast
8:35 AM 42.8 °F 35.8 °F 42.8 °F 100% 30.25 in 2.5 mi SSW 13.8 mph 19.6 mph N/A   Overcast
8:55 AM 42.8 °F 35.8 °F 42.8 °F 100% 30.25 in 2.5 mi SSW 13.8 mph - N/A   Overcast
9:15 AM 42.8 °F 35.1 °F 42.8 °F 100% 30.25 in 2.5 mi SSW 16.1 mph - N/A   Overcast
9:35 AM 44.6 °F 39.2 °F 42.8 °F 93% 30.25 in 2.5 mi South 10.4 mph 18.4 mph N/A   Overcast
9:55 AM 44.6 °F 36.9 °F 42.8 °F 93% 30.25 in 3.0 mi South 18.4 mph - N/A   Overcast
10:15 AM 44.6 °F 37.4 °F 42.8 °F 93% 30.24 in 2.5 mi South 16.1 mph - N/A   Overcast
10:35 AM 44.6 °F 37.2 °F 42.8 °F 93% 30.24 in 3.0 mi SSW 17.3 mph - N/A   Overcast
10:55 AM 44.6 °F 36.4 °F 42.8 °F 93% 30.23 in 3.0 mi South 20.7 mph - N/A   Overcast
11:15 AM 46.4 °F 40.7 °F 44.6 °F 93% 30.23 in 4.0 mi SSW 12.7 mph 16.1 mph N/A   Overcast
11:35 AM 46.4 °F 39.8 °F 44.6 °F 93% 30.22 in 4.0 mi SSW 16.1 mph 21.9 mph N/A   Overcast
11:55 AM 46.4 °F 40.4 °F 44.6 °F 93% 30.21 in 4.0 mi South 13.8 mph 20.7 mph N/A   Overcast
12:15 PM 46.4 °F 39.5 °F 44.6 °F 93% 30.20 in 5.0 mi South 17.3 mph 21.9 mph N/A   Overcast
12:35 PM 46.4 °F 39.2 °F 44.6 °F 93% 30.20 in 5.0 mi SSW 18.4 mph - N/A   Mostly Cloudy
12:55 PM 48.2 °F - 44.6 °F 87% 30.20 in 7.0 mi SSW 18.4 mph 21.9 mph N/A   Mostly Cloudy
1:15 PM 48.2 °F - 44.6 °F 87% 30.19 in 7.0 mi South 15.0 mph - N/A   Mostly Cloudy
1:35 PM 48.2 °F - 44.6 °F 87% 30.18 in 7.0 mi South 17.3 mph - N/A   Mostly Cloudy
1:55 PM 51.8 °F - 46.4 °F 82% 30.17 in 7.0 mi South 15.0 mph 18.4 mph N/A   Scattered Clouds
2:15 PM 50.0 °F - 46.4 °F 87% 30.16 in 7.0 mi South 16.1 mph 20.7 mph N/A   Scattered Clouds
2:35 PM 51.8 °F - 46.4 °F 82% 30.16 in 7.0 mi South 16.1 mph - N/A   Clear
2:55 PM 51.8 °F - 46.4 °F 82% 30.16 in 7.0 mi South 17.3 mph 21.9 mph N/A   Clear
3:15 PM 50.0 °F - 46.4 °F 87% 30.15 in 5.0 mi South 18.4 mph 21.9 mph N/A   Clear
3:35 PM 48.2 °F - 46.4 °F 93% 30.15 in 5.0 mi South 16.1 mph - N/A   Clear
3:55 PM 48.2 °F - 44.6 °F 87% 30.15 in 5.0 mi South 12.7 mph - N/A   Clear
4:35 PM 46.4 °F - 44.6 °F 93% 30.14 in 5.0 mi North - - N/A   Clear
4:55 PM 46.4 °F 39.8 °F 44.6 °F 93% 30.14 in 7.0 mi South 16.1 mph - N/A   Clear
5:15 PM 46.4 °F 39.5 °F 44.6 °F 93% 30.14 in 7.0 mi South 17.3 mph 23.0 mph N/A   Clear
5:35 PM 46.4 °F 39.5 °F 44.6 °F 93% 30.13 in 7.0 mi South 17.3 mph 20.7 mph N/A   Clear
5:55 PM 46.4 °F 39.5 °F 44.6 °F 93% 30.13 in 5.0 mi South 17.3 mph 24.2 mph N/A   Clear
6:15 PM 46.4 °F 39.0 °F 44.6 °F 93% 30.13 in 5.0 mi South 19.6 mph 28.8 mph N/A   Clear
6:35 PM 44.6 °F 36.6 °F 42.8 °F 93% 30.13 in 7.0 mi South 19.6 mph 25.3 mph N/A   Clear
6:55 PM 44.6 °F 36.1 °F 42.8 °F 93% 30.13 in 7.0 mi South 21.9 mph 26.5 mph N/A   Clear
7:15 PM 44.6 °F 36.1 °F 42.8 °F 93% 30.13 in 5.0 mi South 21.9 mph 25.3 mph N/A   Clear
7:35 PM 44.6 °F 36.9 °F 42.8 °F 93% 30.13 in 7.0 mi South 18.4 mph 25.3 mph N/A   Clear
7:55 PM 44.6 °F 36.9 °F 42.8 °F 93% 30.12 in 7.0 mi South 18.4 mph 25.3 mph N/A   Clear
8:15 PM 44.6 °F 36.4 °F 42.8 °F 93% 30.11 in 7.0 mi South 20.7 mph 25.3 mph N/A   Clear
8:35 PM 44.6 °F 36.4 °F 42.8 °F 93% 30.11 in 7.0 mi South 20.7 mph - N/A   Clear
8:55 PM 44.6 °F 36.1 °F 42.8 °F 93% 30.10 in 7.0 mi South 21.9 mph 26.5 mph N/A   Clear
9:15 PM 44.6 °F 37.2 °F 42.8 °F 93% 30.10 in 7.0 mi South 17.3 mph 26.5 mph N/A   Clear
9:35 PM 44.6 °F 36.9 °F 42.8 °F 93% 30.11 in 7.0 mi South 18.4 mph - N/A   Clear
9:55 PM 44.6 °F 36.9 °F 42.8 °F 93% 30.10 in 5.0 mi SSW 18.4 mph 24.2 mph N/A   Clear
10:15 PM 44.6 °F 37.2 °F 42.8 °F 93% 30.10 in 5.0 mi South 17.3 mph - N/A   Clear
10:35 PM 44.6 °F 38.4 °F 42.8 °F 93% 30.10 in 5.0 mi South 12.7 mph - N/A   Clear
10:55 PM 44.6 °F 37.2 °F 42.8 °F 93% 30.10 in 5.0 mi South 17.3 mph 21.9 mph N/A   Clear
11:15 PM 44.6 °F 37.2 °F 42.8 °F 93% 30.09 in 5.0 mi SSW 17.3 mph - N/A   Clear
11:55 PM 44.6 °F 37.2 °F 42.8 °F 93% 30.09 in 5.0 mi South 17.3 mph 20.7 mph N/A   Clear